Time;durP1;ratioP1;P1;durP2;ratioP2;P2;SDS_P1;SDS_P2;PMS_P1;PMS_P2;Temp;Humidity;BMP_temperature;BMP_pressure;BME280_temperature;BME280_humidity;BME280_pressure;Samples;Min_cycle;Max_cycle;Signal;HPM_P1;HPM_P2
2023/07/02 00:02:02;;;;;;;0.20;0.20;;;;;;;;;;5092214;28;20027;-68
2023/07/02 00:04:27;;;;;;;0.20;0.20;;;;;;;;;;5075353;28;20043;-69
2023/07/02 00:06:53;;;;;;;0.20;0.20;;;;;;;;;;5075414;28;20028;-69
2023/07/02 00:09:18;;;;;;;0.20;0.20;;;;;;;;;;5093051;28;20059;-68
2023/07/02 00:11:45;;;;;;;0.20;0.20;;;;;;;;;;5092006;28;20564;-68
2023/07/02 00:14:11;;;;;;;0.20;0.20;;;;;;;;;;5075044;28;20031;-69
2023/07/02 00:16:38;;;;;;;0.28;0.28;;;;;;;;;;5093191;28;20035;-69
2023/07/02 00:19:04;;;;;;;0.20;0.20;;;;;;;;;;5092870;28;20039;-68
2023/07/02 00:21:33;;;;;;;0.20;0.20;;;;;;;;;;5092102;28;20043;-68
2023/07/02 00:23:59;;;;;;;0.20;0.20;;;;;;;;;;5092422;28;20067;-69
2023/07/02 00:26:25;;;;;;;0.20;0.20;;;;;;;;;;5092987;28;20467;-69
2023/07/02 00:28:51;;;;;;;0.20;0.20;;;;;;;;;;5074763;28;20032;-69
2023/07/02 00:31:16;;;;;;;0.10;0.10;;;;;;;;;;5091720;28;20036;-69
2023/07/02 00:33:42;;;;;;;0.20;0.20;;;;;;;;;;5093100;28;20509;-69
2023/07/02 00:36:12;;;;;;;0.20;0.20;;;;;;;;;;5074810;28;20086;-69
2023/07/02 00:38:38;;;;;;;0.20;0.20;;;;;;;;;;5074915;28;20388;-69
2023/07/02 00:41:03;;;;;;;0.20;0.20;;;;;;;;;;5074029;28;20028;-69
2023/07/02 00:43:30;;;;;;;0.20;0.20;;;;;;;;;;5074558;28;20440;-69
2023/07/02 00:45:55;;;;;;;0.20;0.20;;;;;;;;;;5091701;28;20563;-69
2023/07/02 00:48:21;;;;;;;0.20;0.20;;;;;;;;;;5091866;28;20099;-69
2023/07/02 00:50:46;;;;;;;0.20;0.20;;;;;;;;;;5065586;28;20067;-69
2023/07/02 00:53:12;;;;;;;0.20;0.20;;;;;;;;;;5071172;28;20041;-69
2023/07/02 00:55:38;;;;;;;0.50;0.50;;;;;;;;;;5054490;28;20423;-69
2023/07/02 00:58:03;;;;;;;0.20;0.20;;;;;;;;;;5054343;28;20101;-68
2023/07/02 01:00:29;;;;;;;0.17;0.17;;;;;;;;;;5072311;28;20086;-68
2023/07/02 01:02:58;;;;;;;0.30;0.30;;;;;;;;;;5054541;28;20040;-70
2023/07/02 01:05:25;;;;;;;1.48;1.30;;;;;;;;;;5072254;28;20036;-70
2023/07/02 01:07:51;;;;;;;6.95;2.78;;;;;;;;;;5071044;28;20043;-69
2023/07/02 01:10:17;;;;;;;0.10;0.10;;;;;;;;;;5072304;28;20062;-70
2023/07/02 01:12:48;;;;;;;0.20;0.20;;;;;;;;;;5074246;28;20040;-67
2023/07/02 01:15:21;;;;;;;0.20;0.20;;;;;;;;;;5092506;28;20467;-69
2023/07/02 01:17:48;;;;;;;0.30;0.30;;;;;;;;;;5092548;28;20040;-69
2023/07/02 01:20:16;;;;;;;0.10;0.10;;;;;;;;;;5057729;28;20471;-70
2023/07/02 01:22:42;;;;;;;1.08;1.08;;;;;;;;;;5092317;28;20074;-69
2023/07/02 01:25:08;;;;;;;0.20;0.20;;;;;;;;;;5091808;28;20422;-68
2023/07/02 01:27:35;;;;;;;0.20;0.20;;;;;;;;;;5092282;28;20034;-69
2023/07/02 01:30:01;;;;;;;0.20;0.20;;;;;;;;;;5088444;28;20036;-69
2023/07/02 01:32:26;;;;;;;0.20;0.20;;;;;;;;;;5074244;28;20085;-69
2023/07/02 01:34:53;;;;;;;0.20;0.20;;;;;;;;;;5092238;28;20158;-69
2023/07/02 01:37:18;;;;;;;0.20;0.20;;;;;;;;;;5073960;28;20127;-69
2023/07/02 01:39:45;;;;;;;0.20;0.20;;;;;;;;;;5092114;28;20490;-69
2023/07/02 01:42:11;;;;;;;0.20;0.20;;;;;;;;;;5092205;28;20028;-69
2023/07/02 01:44:37;;;;;;;0.20;0.20;;;;;;;;;;5092148;28;20036;-69
2023/07/02 01:47:03;;;;;;;0.20;0.20;;;;;;;;;;5057278;28;20046;-68
2023/07/02 01:49:28;;;;;;;1.23;1.23;;;;;;;;;;5073708;28;20066;-69
2023/07/02 01:51:55;;;;;;;0.20;0.20;;;;;;;;;;5073945;28;20020;-69
2023/07/02 01:54:21;;;;;;;0.20;0.20;;;;;;;;;;5091796;28;20062;-69
2023/07/02 01:56:47;;;;;;;0.20;0.20;;;;;;;;;;5073977;28;20077;-69
2023/07/02 01:59:12;;;;;;;0.20;0.20;;;;;;;;;;5095622;28;20031;-69
2023/07/02 02:01:41;;;;;;;0.20;0.20;;;;;;;;;;5077245;28;20032;-69
2023/07/02 02:04:06;;;;;;;0.20;0.20;;;;;;;;;;5095746;28;20369;-69
2023/07/02 02:06:32;;;;;;;0.20;0.20;;;;;;;;;;5095276;28;20028;-69
2023/07/02 02:08:57;;;;;;;0.17;0.17;;;;;;;;;;5077054;28;20123;-69
2023/07/02 02:11:23;;;;;;;2.05;1.85;;;;;;;;;;5077132;28;20483;-69
2023/07/02 02:13:49;;;;;;;0.20;0.20;;;;;;;;;;5076376;28;20040;-69
2023/07/02 02:16:14;;;;;;;0.20;0.20;;;;;;;;;;5076999;28;20031;-69
2023/07/02 02:18:40;;;;;;;0.20;0.20;;;;;;;;;;5094982;28;20084;-69
2023/07/02 02:21:05;;;;;;;0.32;0.32;;;;;;;;;;5095463;28;20467;-69
2023/07/02 02:23:30;;;;;;;0.20;0.20;;;;;;;;;;5094882;28;20521;-69
2023/07/02 02:25:57;;;;;;;0.40;0.40;;;;;;;;;;5075369;28;20882;-69
2023/07/02 02:28:23;;;;;;;0.50;0.50;;;;;;;;;;5077006;28;20024;-69
2023/07/02 02:30:48;;;;;;;0.20;0.20;;;;;;;;;;5094959;28;20068;-69
2023/07/02 02:33:14;;;;;;;0.10;0.10;;;;;;;;;;5076754;28;20036;-69
2023/07/02 02:35:40;;;;;;;0.20;0.20;;;;;;;;;;5093418;28;20034;-69
2023/07/02 02:38:06;;;;;;;0.50;0.50;;;;;;;;;;5076489;28;20032;-69
2023/07/02 02:40:31;;;;;;;0.20;0.20;;;;;;;;;;5094630;28;20466;-69
2023/07/02 02:42:56;;;;;;;0.13;0.13;;;;;;;;;;5076506;28;20028;-69
2023/07/02 02:45:22;;;;;;;0.10;0.10;;;;;;;;;;5075790;28;20372;-69
2023/07/02 02:47:48;;;;;;;0.20;0.20;;;;;;;;;;5094806;28;20020;-69
2023/07/02 02:50:13;;;;;;;0.32;0.32;;;;;;;;;;5076489;28;20127;-69
2023/07/02 02:52:39;;;;;;;0.20;0.20;;;;;;;;;;5094476;28;20441;-70
2023/07/02 02:55:06;;;;;;;0.10;0.10;;;;;;;;;;5093778;28;20024;-69
2023/07/02 02:57:31;;;;;;;0.20;0.20;;;;;;;;;;5093610;28;20490;-69
2023/07/02 02:59:57;;;;;;;0.15;0.15;;;;;;;;;;5094085;28;20040;-69
2023/07/02 03:02:22;;;;;;;0.20;0.20;;;;;;;;;;5072703;28;20030;-70
2023/07/02 03:04:49;;;;;;;0.20;0.20;;;;;;;;;;5072565;28;20035;-69
2023/07/02 03:07:15;;;;;;;0.20;0.20;;;;;;;;;;5072159;28;20032;-69
2023/07/02 03:09:40;;;;;;;0.15;0.15;;;;;;;;;;5089064;28;20395;-70
2023/07/02 03:12:06;;;;;;;0.20;0.20;;;;;;;;;;5071876;28;20032;-70
2023/07/02 03:14:31;;;;;;;0.10;0.10;;;;;;;;;;5071382;28;20032;-72
2023/07/02 03:16:57;;;;;;;0.20;0.20;;;;;;;;;;5088567;28;20036;-71
2023/07/02 03:19:22;;;;;;;0.20;0.20;;;;;;;;;;5090208;28;20036;-69
2023/07/02 03:21:48;;;;;;;0.20;0.20;;;;;;;;;;5090071;28;20028;-69
2023/07/02 03:24:13;;;;;;;0.20;0.20;;;;;;;;;;5089715;28;20028;-69
2023/07/02 03:26:42;;;;;;;0.20;0.20;;;;;;;;;;5089825;28;20036;-69
2023/07/02 03:29:08;;;;;;;;;;;;;;;;;;5090179;28;20032;-69
2023/07/02 03:31:33;;;;;;;0.20;0.20;;;;;;;;;;5090061;28;20041;-69
2023/07/02 03:33:59;;;;;;;0.80;0.80;;;;;;;;;;5089636;28;20051;-71
2023/07/02 03:36:25;;;;;;;0.85;0.85;;;;;;;;;;5089241;28;20463;-71
2023/07/02 03:38:50;;;;;;;0.20;0.20;;;;;;;;;;5089770;28;20074;-69
2023/07/02 03:41:15;;;;;;;0.20;0.20;;;;;;;;;;5088062;28;20386;-70
2023/07/02 03:43:41;;;;;;;0.20;0.20;;;;;;;;;;5089504;28;20039;-70
2023/07/02 03:46:06;;;;;;;0.20;0.20;;;;;;;;;;5071502;28;20050;-69
2023/07/02 03:48:32;;;;;;;0.20;0.20;;;;;;;;;;5089325;28;20073;-69
2023/07/02 03:50:57;;;;;;;0.20;0.20;;;;;;;;;;5089386;28;20032;-69
2023/07/02 03:53:22;;;;;;;0.20;0.20;;;;;;;;;;5071287;28;20169;-69
2023/07/02 03:55:48;;;;;;;2.83;0.50;;;;;;;;;;5089578;28;20043;-69
2023/07/02 03:58:13;;;;;;;0.20;0.20;;;;;;;;;;5089283;28;20044;-69
2023/07/02 04:00:40;;;;;;;0.45;0.45;;;;;;;;;;5087819;28;20059;-69
2023/07/02 04:03:05;;;;;;;0.20;0.20;;;;;;;;;;5070995;28;20039;-69
2023/07/02 04:05:30;;;;;;;0.20;0.20;;;;;;;;;;5089259;28;20483;-69
2023/07/02 04:07:56;;;;;;;0.20;0.20;;;;;;;;;;5089251;28;20032;-72
2023/07/02 04:10:21;;;;;;;0.20;0.20;;;;;;;;;;5087445;28;20035;-70
2023/07/02 04:12:47;;;;;;;0.20;0.20;;;;;;;;;;5089549;28;20036;-69
2023/07/02 04:15:12;;;;;;;0.20;0.20;;;;;;;;;;5089520;28;20430;-69
2023/07/02 04:17:38;;;;;;;0.20;0.20;;;;;;;;;;5089243;28;20075;-69
2023/07/02 04:20:03;;;;;;;0.82;0.57;;;;;;;;;;5088376;28;20387;-69
2023/07/02 04:22:29;;;;;;;0.20;0.20;;;;;;;;;;5088453;28;20057;-69
2023/07/02 04:24:55;;;;;;;0.30;0.30;;;;;;;;;;5089662;28;20028;-69
2023/07/02 04:27:20;;;;;;;0.20;0.20;;;;;;;;;;5088203;28;20487;-69
2023/07/02 04:29:46;;;;;;;0.20;0.20;;;;;;;;;;5088637;28;20066;-69
2023/07/02 04:32:11;;;;;;;0.20;0.20;;;;;;;;;;5089263;28;20038;-68
2023/07/02 04:34:37;;;;;;;0.20;0.20;;;;;;;;;;5087654;28;20028;-68
2023/07/02 04:37:03;;;;;;;0.20;0.20;;;;;;;;;;5088966;28;20040;-68
2023/07/02 04:39:28;;;;;;;0.65;0.50;;;;;;;;;;5088827;28;20032;-69
2023/07/02 04:41:54;;;;;;;0.20;0.20;;;;;;;;;;5086940;28;20031;-69
2023/07/02 04:44:29;;;;;;;0.20;0.20;;;;;;;;;;5069371;28;20505;-70
2023/07/02 04:46:59;;;;;;;2.38;2.28;;;;;;;;;;5087541;28;20439;-69
2023/07/02 04:49:24;;;;;;;0.40;0.40;;;;;;;;;;5088789;28;20025;-69
2023/07/02 04:51:50;;;;;;;0.20;0.20;;;;;;;;;;5088676;28;20032;-69
2023/07/02 04:54:15;;;;;;;0.20;0.20;;;;;;;;;;5088216;28;20063;-70
2023/07/02 04:56:41;;;;;;;0.20;0.20;;;;;;;;;;5089133;28;20048;-69
2023/07/02 04:59:06;;;;;;;0.25;0.25;;;;;;;;;;5087556;28;20035;-69
2023/07/02 05:01:32;;;;;;;0.20;0.20;;;;;;;;;;5083512;28;20093;-68
2023/07/02 05:03:57;;;;;;;0.20;0.20;;;;;;;;;;5088067;28;20032;-68
2023/07/02 05:06:22;;;;;;;0.75;0.55;;;;;;;;;;5088857;28;20187;-69
2023/07/02 05:08:48;;;;;;;0.45;0.45;;;;;;;;;;5088886;28;20219;-68
2023/07/02 05:11:13;;;;;;;1.70;1.63;;;;;;;;;;5086520;28;20046;-67
2023/07/02 05:13:39;;;;;;;0.80;0.50;;;;;;;;;;5087669;28;20077;-71
2023/07/02 05:16:04;;;;;;;0.20;0.20;;;;;;;;;;5087386;28;20124;-69
2023/07/02 05:18:30;;;;;;;0.20;0.20;;;;;;;;;;5088159;28;20459;-70
2023/07/02 05:20:55;;;;;;;0.32;0.32;;;;;;;;;;5088668;28;20471;-70
2023/07/02 05:23:20;;;;;;;0.20;0.20;;;;;;;;;;5070312;28;20123;-69
2023/07/02 05:25:47;;;;;;;0.20;0.20;;;;;;;;;;5084198;28;20372;-68
2023/07/02 05:28:13;;;;;;;0.20;0.20;;;;;;;;;;5069343;28;20043;-69
2023/07/02 05:30:39;;;;;;;0.45;0.45;;;;;;;;;;5069275;28;20036;-69
2023/07/02 05:33:04;;;;;;;0.20;0.20;;;;;;;;;;5091125;28;20064;-69
2023/07/02 05:35:30;;;;;;;0.60;0.60;;;;;;;;;;5085488;28;20068;-67
2023/07/02 05:37:55;;;;;;;0.20;0.20;;;;;;;;;;5086921;28;20075;-70
2023/07/02 05:40:21;;;;;;;0.28;0.28;;;;;;;;;;5070451;28;20123;-69
2023/07/02 05:42:46;;;;;;;1.48;1.15;;;;;;;;;;5071344;28;20025;-68
2023/07/02 05:45:11;;;;;;;0.20;0.20;;;;;;;;;;5071519;28;20035;-69
2023/07/02 05:47:37;;;;;;;1.75;1.40;;;;;;;;;;5071761;28;20036;-68
2023/07/02 05:50:02;;;;;;;0.38;0.38;;;;;;;;;;5062617;28;20036;-68
2023/07/02 05:52:28;;;;;;;0.95;0.95;;;;;;;;;;5070861;28;20063;-71
2023/07/02 05:54:53;;;;;;;0.30;0.30;;;;;;;;;;5071067;28;20029;-69
2023/07/02 05:57:19;;;;;;;0.32;0.32;;;;;;;;;;5070693;28;20098;-69
2023/07/02 05:59:44;;;;;;;1.40;1.30;;;;;;;;;;5071525;28;20024;-69
2023/07/02 06:02:09;;;;;;;0.20;0.20;;;;;;;;;;5071238;28;20089;-69
2023/07/02 06:04:35;;;;;;;0.57;0.52;;;;;;;;;;5090765;28;20032;-70
2023/07/02 06:07:01;;;;;;;0.20;0.20;;;;;;;;;;5091848;28;20030;-69
2023/07/02 06:09:26;;;;;;;1.33;1.23;;;;;;;;;;5091028;28;20470;-69
2023/07/02 06:11:51;;;;;;;0.20;0.20;;;;;;;;;;5091226;28;20024;-69
2023/07/02 06:14:17;;;;;;;0.20;0.20;;;;;;;;;;5072945;28;20435;-69
2023/07/02 06:16:42;;;;;;;0.40;0.40;;;;;;;;;;5091247;28;20115;-69
2023/07/02 06:19:08;;;;;;;1.38;0.63;;;;;;;;;;5090925;28;20032;-69
2023/07/02 06:21:33;;;;;;;0.30;0.30;;;;;;;;;;5090774;28;20050;-68
2023/07/02 06:24:01;;;;;;;0.20;0.20;;;;;;;;;;5090271;28;20024;-69
2023/07/02 06:26:27;;;;;;;0.70;0.70;;;;;;;;;;5072759;28;20063;-68
2023/07/02 06:28:52;;;;;;;0.22;0.22;;;;;;;;;;5091000;28;20059;-69
2023/07/02 06:31:18;;;;;;;0.50;0.50;;;;;;;;;;5091051;28;20383;-68
2023/07/02 06:33:43;;;;;;;0.43;0.43;;;;;;;;;;5091271;28;20539;-68
2023/07/02 06:36:09;;;;;;;0.30;0.30;;;;;;;;;;5073014;28;20518;-68
2023/07/02 06:38:34;;;;;;;0.20;0.20;;;;;;;;;;5090255;28;20403;-69
2023/07/02 06:40:59;;;;;;;1.75;1.13;;;;;;;;;;5072670;28;20035;-69
2023/07/02 06:43:25;;;;;;;0.35;0.35;;;;;;;;;;5089836;28;20024;-69
2023/07/02 06:45:50;;;;;;;4.53;0.50;;;;;;;;;;5091035;28;20029;-69
2023/07/02 06:48:17;;;;;;;0.30;0.30;;;;;;;;;;5090854;28;20036;-70
2023/07/02 06:50:44;;;;;;;0.30;0.30;;;;;;;;;;5090337;28;20399;-72
2023/07/02 06:53:09;;;;;;;0.20;0.20;;;;;;;;;;5090622;28;20040;-70
2023/07/02 06:55:34;;;;;;;0.50;0.50;;;;;;;;;;5090022;28;20035;-70
2023/07/02 06:58:00;;;;;;;0.30;0.30;;;;;;;;;;5090822;28;20570;-71
2023/07/02 07:00:25;;;;;;;0.85;0.60;;;;;;;;;;5088911;28;20099;-69
2023/07/02 07:02:51;;;;;;;0.30;0.30;;;;;;;;;;5079773;28;20082;-68
2023/07/02 07:05:17;;;;;;;0.70;0.70;;;;;;;;;;5070615;28;20060;-70
2023/07/02 07:07:42;;;;;;;2.92;1.58;;;;;;;;;;5069441;28;20055;-69
2023/07/02 07:10:08;;;;;;;0.20;0.20;;;;;;;;;;5077189;28;20064;-70
2023/07/02 07:12:33;;;;;;;0.28;0.28;;;;;;;;;;5087850;28;20064;-70
2023/07/02 07:14:59;;;;;;;1.45;0.80;;;;;;;;;;5090306;28;20439;-69
2023/07/02 07:17:24;;;;;;;0.75;0.65;;;;;;;;;;5090027;28;20139;-70
2023/07/02 07:19:49;;;;;;;0.65;0.65;;;;;;;;;;5087708;28;20078;-70
2023/07/02 07:22:15;;;;;;;1.85;0.88;;;;;;;;;;5089068;28;20510;-70
2023/07/02 07:24:41;;;;;;;0.35;0.35;;;;;;;;;;5089668;28;20419;-71
2023/07/02 07:27:07;;;;;;;0.30;0.30;;;;;;;;;;5082937;28;20059;-69
2023/07/02 07:29:32;;;;;;;2.10;1.13;;;;;;;;;;5076596;28;20459;-69
2023/07/02 07:31:57;;;;;;;0.40;0.40;;;;;;;;;;5086558;28;20103;-70
2023/07/02 07:34:23;;;;;;;0.30;0.30;;;;;;;;;;5089629;28;20074;-70
2023/07/02 07:36:48;;;;;;;0.20;0.20;;;;;;;;;;5084198;28;20055;-71
2023/07/02 07:39:14;;;;;;;0.30;0.30;;;;;;;;;;5088998;28;20077;-70
2023/07/02 07:41:39;;;;;;;0.52;0.50;;;;;;;;;;5080938;28;20391;-71
2023/07/02 07:44:04;;;;;;;0.40;0.40;;;;;;;;;;5069690;28;20038;-69
2023/07/02 07:46:30;;;;;;;0.30;0.30;;;;;;;;;;5069267;28;20537;-69
2023/07/02 07:48:55;;;;;;;0.30;0.30;;;;;;;;;;5069057;28;20024;-70
2023/07/02 07:51:21;;;;;;;0.63;0.63;;;;;;;;;;5069251;28;20044;-69
2023/07/02 07:53:46;;;;;;;4.68;1.52;;;;;;;;;;5068594;28;20029;-69
2023/07/02 07:56:11;;;;;;;0.30;0.30;;;;;;;;;;5068654;28;20821;-69
2023/07/02 07:58:37;;;;;;;0.20;0.20;;;;;;;;;;5068345;28;20063;-68
2023/07/02 08:01:02;;;;;;;0.40;0.40;;;;;;;;;;5077282;28;20030;-69
2023/07/02 08:03:28;;;;;;;0.20;0.20;;;;;;;;;;5086873;28;20027;-70
2023/07/02 08:05:53;;;;;;;0.80;0.80;;;;;;;;;;5066036;28;20376;-69
2023/07/02 08:08:18;;;;;;;2.85;1.33;;;;;;;;;;5070822;28;20105;-69
2023/07/02 08:10:45;;;;;;;3.90;2.08;;;;;;;;;;5085406;28;20035;-69
2023/07/02 08:13:10;;;;;;;1.15;1.05;;;;;;;;;;5087370;28;20032;-71
2023/07/02 08:15:37;;;;;;;0.30;0.30;;;;;;;;;;5078686;28;20580;-71
2023/07/02 08:18:03;;;;;;;0.73;0.73;;;;;;;;;;5067295;28;20100;-70
2023/07/02 08:20:29;;;;;;;3.10;1.00;;;;;;;;;;5071924;28;20123;-70
2023/07/02 08:22:54;;;;;;;1.65;0.80;;;;;;;;;;5068887;28;20551;-69
2023/07/02 08:25:21;;;;;;;1.05;0.63;;;;;;;;;;5068676;28;20064;-75
2023/07/02 08:27:47;;;;;;;4.15;2.10;;;;;;;;;;5069017;28;20412;-70
2023/07/02 08:30:12;;;;;;;1.98;0.90;;;;;;;;;;5069149;28;20037;-69
2023/07/02 08:32:38;;;;;;;1.48;1.05;;;;;;;;;;5071486;28;20036;-70
2023/07/02 08:35:03;;;;;;;2.65;1.30;;;;;;;;;;5088518;28;20035;-69
2023/07/02 08:37:29;;;;;;;3.42;1.63;;;;;;;;;;5088926;28;20368;-70
2023/07/02 08:39:54;;;;;;;0.80;0.80;;;;;;;;;;5069748;28;20043;-74
2023/07/02 08:42:20;;;;;;;1.33;1.10;;;;;;;;;;5069588;28;20035;-70
2023/07/02 08:44:46;;;;;;;2.65;1.75;;;;;;;;;;5084979;28;20781;-70
2023/07/02 08:47:11;;;;;;;1.02;0.77;;;;;;;;;;5086676;28;20418;-70
2023/07/02 08:49:36;;;;;;;0.65;0.60;;;;;;;;;;5071007;28;20116;-70
2023/07/02 08:52:02;;;;;;;0.52;0.52;;;;;;;;;;5086115;28;20028;-70
2023/07/02 08:54:27;;;;;;;2.47;1.40;;;;;;;;;;5086615;28;20059;-69
2023/07/02 08:56:53;;;;;;;6.90;2.63;;;;;;;;;;5067850;28;20048;-70
2023/07/02 08:59:18;;;;;;;3.08;2.13;;;;;;;;;;5077004;28;20036;-70
2023/07/02 09:01:48;;;;;;;1.25;0.90;;;;;;;;;;5051198;28;20036;-70
2023/07/02 09:04:17;;;;;;;2.70;2.40;;;;;;;;;;5070315;28;20043;-70
2023/07/02 09:06:42;;;;;;;;;;;;;;;;;;5089701;28;20490;-70
2023/07/02 09:09:08;;;;;;;3.80;1.40;;;;;;;;;;5092117;28;19908;-71
2023/07/02 09:11:33;;;;;;;6.65;2.22;;;;;;;;;;5090831;28;20281;-73
2023/07/02 09:14:00;;;;;;;1.35;0.98;;;;;;;;;;5092227;28;20036;-69
2023/07/02 09:16:28;;;;;;;0.95;0.95;;;;;;;;;;5090491;28;20119;-70
2023/07/02 09:19:03;;;;;;;1.73;1.08;;;;;;;;;;5092228;28;20032;-71
2023/07/02 09:21:48;;;;;;;2.13;1.25;;;;;;;;;;5073832;28;20063;-70
2023/07/02 09:24:17;;;;;;;1.65;1.15;;;;;;;;;;5089869;28;20044;-73
2023/07/02 09:26:46;;;;;;;4.10;1.85;;;;;;;;;;5080507;28;20078;-70
2023/07/02 09:29:12;;;;;;;2.25;1.55;;;;;;;;;;5089719;28;20036;-69
2023/07/02 09:31:44;;;;;;;3.35;1.77;;;;;;;;;;5073687;28;20391;-70
2023/07/02 09:34:10;;;;;;;3.85;2.20;;;;;;;;;;5076858;28;20425;-70
2023/07/02 09:36:40;;;;;;;2.60;1.55;;;;;;;;;;5071107;28;20032;-72
2023/07/02 09:39:06;;;;;;;0.30;0.30;;;;;;;;;;5053969;28;20028;-70
2023/07/02 09:41:31;;;;;;;3.97;2.30;;;;;;;;;;5071325;28;20032;-70
2023/07/02 09:43:57;;;;;;;1.35;1.02;;;;;;;;;;5053848;28;20434;-69
2023/07/02 09:46:23;;;;;;;0.32;0.32;;;;;;;;;;5071442;28;20419;-69
2023/07/02 09:48:48;;;;;;;0.28;0.28;;;;;;;;;;5071150;28;20070;-69
2023/07/02 09:51:14;;;;;;;0.45;0.45;;;;;;;;;;5071044;28;20093;-70
2023/07/02 09:53:39;;;;;;;1.38;0.80;;;;;;;;;;5070941;28;20120;-70
2023/07/02 09:56:07;;;;;;;4.95;2.70;;;;;;;;;;5086461;28;20063;-70
2023/07/02 09:58:32;;;;;;;2.63;1.15;;;;;;;;;;5073193;28;20375;-70
2023/07/02 10:00:57;;;;;;;2.83;1.02;;;;;;;;;;5088195;28;20928;-70
2023/07/02 10:03:30;;;;;;;1.42;1.10;;;;;;;;;;5054851;28;20051;-70
2023/07/02 10:06:05;;;;;;;3.97;2.20;;;;;;;;;;5081486;28;20051;-69
2023/07/02 10:08:30;;;;;;;2.90;1.85;;;;;;;;;;5080748;28;20033;-70
2023/07/02 10:11:09;;;;;;;2.42;1.70;;;;;;;;;;5059731;28;20099;-69
2023/07/02 10:13:34;;;;;;;5.78;2.30;;;;;;;;;;5084832;28;20032;-70
2023/07/02 10:16:03;;;;;;;4.13;1.55;;;;;;;;;;5067861;28;20027;-71
2023/07/02 10:18:29;;;;;;;;;;;;;;;;;;5080213;28;20517;-71
2023/07/02 10:20:54;;;;;;;2.37;1.20;;;;;;;;;;5080511;28;19916;-68
2023/07/02 10:23:20;;;;;;;2.53;1.45;;;;;;;;;;5080933;28;20059;-69
2023/07/02 10:25:45;;;;;;;1.17;1.02;;;;;;;;;;5081103;28;20032;-69
2023/07/02 10:28:15;;;;;;;3.08;1.85;;;;;;;;;;5080545;28;20153;-69
2023/07/02 10:30:41;;;;;;;3.85;1.77;;;;;;;;;;5089065;28;20044;-70
2023/07/02 10:33:09;;;;;;;3.55;2.03;;;;;;;;;;5072538;28;20073;-69
2023/07/02 10:35:34;;;;;;;2.30;1.30;;;;;;;;;;5090204;28;20460;-70
2023/07/02 10:38:00;;;;;;;1.38;0.93;;;;;;;;;;5088028;28;20043;-72
2023/07/02 10:40:25;;;;;;;2.80;1.70;;;;;;;;;;5090303;28;20028;-70
2023/07/02 10:42:52;;;;;;;2.75;2.03;;;;;;;;;;5090710;28;20024;-71
2023/07/02 10:45:18;;;;;;;4.03;1.90;;;;;;;;;;5089180;28;20035;-72
2023/07/02 10:47:44;;;;;;;0.40;0.40;;;;;;;;;;5091134;28;20466;-72
2023/07/02 10:50:19;;;;;;;3.30;1.98;;;;;;;;;;5072518;28;20050;-73
2023/07/02 10:52:45;;;;;;;2.05;1.27;;;;;;;;;;5089628;28;20115;-72
2023/07/02 10:55:15;;;;;;;2.40;1.45;;;;;;;;;;5090681;28;20109;-72
2023/07/02 10:57:41;;;;;;;1.17;0.95;;;;;;;;;;5090642;28;20482;-72
2023/07/02 11:00:09;;;;;;;3.40;2.25;;;;;;;;;;5090439;28;20110;-73
2023/07/02 11:02:36;;;;;;;1.85;0.90;;;;;;;;;;5072317;28;20361;-72
2023/07/02 11:05:02;;;;;;;3.03;1.80;;;;;;;;;;5089893;28;20040;-73
2023/07/02 11:07:27;;;;;;;2.63;1.45;;;;;;;;;;5090303;28;20058;-73
2023/07/02 11:09:53;;;;;;;2.00;1.67;;;;;;;;;;5090434;28;20035;-72
2023/07/02 11:12:26;;;;;;;10.50;2.28;;;;;;;;;;5090183;28;20098;-72
2023/07/02 11:14:52;;;;;;;0.77;0.77;;;;;;;;;;5089350;28;20085;-72
2023/07/02 11:17:24;;;;;;;0.50;0.50;;;;;;;;;;5088945;28;20028;-72
2023/07/02 11:19:50;;;;;;;2.13;1.15;;;;;;;;;;5072386;28;20107;-72
2023/07/02 11:22:15;;;;;;;0.90;0.70;;;;;;;;;;5088711;28;20431;-77
2023/07/02 11:24:41;;;;;;;2.58;1.42;;;;;;;;;;5090147;28;20032;-76
2023/07/02 11:27:06;;;;;;;1.70;1.20;;;;;;;;;;5087766;28;20031;-76
2023/07/02 11:29:33;;;;;;;2.40;1.20;;;;;;;;;;5089813;28;20390;-76
2023/07/02 11:32:09;;;;;;;3.80;2.28;;;;;;;;;;5066674;28;20058;-76
2023/07/02 11:34:34;;;;;;;5.20;2.42;;;;;;;;;;5089509;28;20483;-79
2023/07/02 11:37:00;;;;;;;0.98;0.77;;;;;;;;;;5085990;28;20044;-80
2023/07/02 11:39:25;;;;;;;4.75;1.73;;;;;;;;;;5087955;28;20024;-77
2023/07/02 11:41:52;;;;;;;10.98;2.28;;;;;;;;;;5088121;28;20028;-78
2023/07/02 11:44:18;;;;;;;4.68;1.83;;;;;;;;;;5071635;28;20036;-74
2023/07/02 11:46:44;;;;;;;0.70;0.70;;;;;;;;;;5069047;28;20027;-77
2023/07/02 11:49:10;;;;;;;5.85;1.70;;;;;;;;;;5089033;28;20032;-77
2023/07/02 11:51:39;;;;;;;1.05;0.98;;;;;;;;;;5072220;28;20036;-78
2023/07/02 11:54:05;;;;;;;;;;;;;;;;;;5090315;28;20031;-79
2023/07/02 11:56:31;;;;;;;2.80;2.00;;;;;;;;;;5091375;28;20283;-78
2023/07/02 11:58:57;;;;;;;4.72;1.83;;;;;;;;;;5089986;28;20028;-79
2023/07/02 12:01:22;;;;;;;3.85;1.48;;;;;;;;;;5071069;28;20031;-78
2023/07/02 12:03:48;;;;;;;3.83;2.17;;;;;;;;;;5093679;28;20379;-78
2023/07/02 12:06:14;;;;;;;4.40;2.20;;;;;;;;;;5108412;28;20047;-77
2023/07/02 12:08:40;;;;;;;3.38;1.50;;;;;;;;;;5096953;28;20042;-78
2023/07/02 12:11:06;;;;;;;1.17;0.70;;;;;;;;;;5089707;28;20019;-78
2023/07/02 12:13:32;;;;;;;2.13;1.23;;;;;;;;;;5089861;28;20036;-79
2023/07/02 12:15:58;;;;;;;1.77;1.17;;;;;;;;;;5090070;28;20035;-78
2023/07/02 12:18:24;;;;;;;2.85;1.98;;;;;;;;;;5088870;28;20383;-80
2023/07/02 12:20:49;;;;;;;5.13;2.35;;;;;;;;;;5090436;28;20024;-78
2023/07/02 12:23:15;;;;;;;5.22;1.50;;;;;;;;;;5091462;28;20038;-78
2023/07/02 12:25:41;;;;;;;2.75;1.20;;;;;;;;;;5084983;28;20036;-79
2023/07/02 12:28:07;;;;;;;4.25;1.85;;;;;;;;;;5071666;28;20051;-79
2023/07/02 12:30:33;;;;;;;0.77;0.77;;;;;;;;;;5089188;28;20051;-79
2023/07/02 12:32:59;;;;;;;1.05;0.85;;;;;;;;;;5089658;28;20126;-79
2023/07/02 12:35:25;;;;;;;3.22;0.98;;;;;;;;;;5089214;28;20107;-78
2023/07/02 12:37:53;;;;;;;7.55;2.50;;;;;;;;;;5071630;28;20061;-79
2023/07/02 12:40:19;;;;;;;1.65;0.90;;;;;;;;;;5088879;28;20030;-78
2023/07/02 12:42:46;;;;;;;3.83;0.88;;;;;;;;;;5071968;28;20029;-78
2023/07/02 12:45:12;;;;;;;4.95;1.98;;;;;;;;;;5068894;28;20028;-80
2023/07/02 12:47:39;;;;;;;0.93;0.60;;;;;;;;;;5068841;28;20434;-79
2023/07/02 12:50:05;;;;;;;6.03;2.35;;;;;;;;;;5051552;28;20033;-79
2023/07/02 12:52:32;;;;;;;3.55;1.23;;;;;;;;;;5069065;28;20068;-79
2023/07/02 12:54:58;;;;;;;0.57;0.57;;;;;;;;;;5089381;28;20028;-79
2023/07/02 12:57:26;;;;;;;4.30;1.83;;;;;;;;;;5082112;28;20092;-80
2023/07/02 12:59:53;;;;;;;6.30;2.58;;;;;;;;;;5091251;28;20035;-83
2023/07/02 13:02:19;;;;;;;1.58;0.82;;;;;;;;;;5093722;28;20107;-80
2023/07/02 13:04:45;;;;;;;4.07;3.45;;;;;;;;;;5106059;28;20059;-82
2023/07/02 13:07:10;;;;;;;7.60;1.90;;;;;;;;;;5088760;28;20067;-82
2023/07/02 13:09:36;;;;;;;4.05;2.10;;;;;;;;;;5088299;28;20047;-81
2023/07/02 13:12:02;;;;;;;3.70;0.85;;;;;;;;;;5088647;28;20065;-83
2023/07/02 13:14:28;;;;;;;3.72;1.92;;;;;;;;;;5093556;28;20046;-82
2023/07/02 13:16:53;;;;;;;3.55;1.40;;;;;;;;;;5091052;28;20031;-82
2023/07/02 13:19:19;;;;;;;3.22;2.05;;;;;;;;;;5088149;28;20491;-83
2023/07/02 13:21:44;;;;;;;6.82;1.90;;;;;;;;;;5088059;28;20555;-83
2023/07/02 13:24:11;;;;;;;4.00;1.33;;;;;;;;;;5076870;28;20032;-80
2023/07/02 13:26:36;;;;;;;2.38;1.15;;;;;;;;;;5077627;28;20483;-81
2023/07/02 13:29:02;;;;;;;2.60;1.33;;;;;;;;;;5079671;28;20029;-79
2023/07/02 13:31:27;;;;;;;2.88;1.35;;;;;;;;;;5069546;28;20020;-80
2023/07/02 13:33:53;;;;;;;2.80;1.05;;;;;;;;;;5075177;28;20035;-79
2023/07/02 13:36:18;;;;;;;0.35;0.35;;;;;;;;;;5089278;28;20050;-82
2023/07/02 13:38:43;;;;;;;1.20;0.82;;;;;;;;;;5088589;28;20067;-77
2023/07/02 13:41:09;;;;;;;9.57;1.48;;;;;;;;;;5088194;28;20035;-81
2023/07/02 13:43:35;;;;;;;4.03;1.10;;;;;;;;;;5053831;28;20036;-80
2023/07/02 13:46:01;;;;;;;3.90;1.10;;;;;;;;;;5068234;28;20027;-80
2023/07/02 13:48:27;;;;;;;6.40;1.95;;;;;;;;;;5061610;28;20036;-80
2023/07/02 13:50:54;;;;;;;1.10;0.82;;;;;;;;;;5088439;28;20467;-77
2023/07/02 13:53:20;;;;;;;1.73;0.57;;;;;;;;;;5087288;28;20032;-78
2023/07/02 13:55:46;;;;;;;3.70;1.38;;;;;;;;;;5089481;28;20422;-78
2023/07/02 13:58:12;;;;;;;4.70;1.75;;;;;;;;;;5089716;28;20085;-79
2023/07/02 14:00:38;;;;;;;4.88;1.77;;;;;;;;;;5089156;28;20439;-77
2023/07/02 14:03:05;;;;;;;2.70;0.98;;;;;;;;;;5089712;28;20039;-79
2023/07/02 14:05:31;;;;;;;11.32;2.08;;;;;;;;;;5097113;28;20024;-80
2023/07/02 14:07:56;;;;;;;6.53;1.40;;;;;;;;;;5092340;28;20096;-78
2023/07/02 14:10:22;;;;;;;1.75;1.05;;;;;;;;;;5088939;28;20036;-76
2023/07/02 14:12:49;;;;;;;5.63;0.88;;;;;;;;;;5093274;28;20499;-77
2023/07/02 14:15:15;;;;;;;3.47;1.48;;;;;;;;;;5093757;28;20032;-81
2023/07/02 14:17:41;;;;;;;3.67;1.63;;;;;;;;;;5086960;28;20036;-78
2023/07/02 14:20:08;;;;;;;2.22;1.77;;;;;;;;;;5085856;28;20040;-78
2023/07/02 14:22:34;;;;;;;10.52;2.47;;;;;;;;;;5084648;28;20039;-70
2023/07/02 14:24:59;;;;;;;2.42;1.35;;;;;;;;;;5087106;28;20047;-73
2023/07/02 14:27:25;;;;;;;4.50;1.38;;;;;;;;;;5087067;28;20539;-73
2023/07/02 14:29:51;;;;;;;0.80;0.70;;;;;;;;;;5086207;28;20028;-73
2023/07/02 14:32:17;;;;;;;5.95;1.23;;;;;;;;;;5085483;28;20028;-71
2023/07/02 14:34:43;;;;;;;8.18;2.80;;;;;;;;;;5085534;28;20039;-70
2023/07/02 14:37:09;;;;;;;8.02;1.77;;;;;;;;;;5085427;28;20023;-73